CHY weather

Coahuayana Airport
Michoacin, Mexico

Public forecast

Using degrees Celsius for public forecast. Weather courtesy of forecast.io.

METAR (pilot weather report)

Report is more than 2 hours old.

Closest report is Licenciado Miguel de la Madrid Airport, 36.0 nm (66.7 km) N. Retrieved 2019/06/20 03:40 UTC (5 hours ago):

MMIA 200340Z 00000KT 8SM BKN200 25/20 A3000 RMK 8/002

TAF (pilot weather forecast)

Closest forecast is Licenciado Miguel de la Madrid Airport, 36.0 nm (66.7 km) N. Retrieved 2019/06/20 06:16 UTC (2 hours ago):

TAF MMIA 200510Z 2006/2106 00000KT P6SM BKN250 FM201700 23010KT P6SM SCT030 BKN080 FM210300 03005KT P6SM SCT020 BKN250